sensor_id;sensor_type;location;lat;lon;timestamp;temperature;humidity
67890;DHT22;54685;52.082;5.426;2022-08-03T00:01:24;21.30;99.90
67890;DHT22;54685;52.082;5.426;2022-08-03T00:03:51;21.40;99.90
67890;DHT22;54685;52.082;5.426;2022-08-03T00:06:18;21.30;99.90
67890;DHT22;54685;52.082;5.426;2022-08-03T00:08:45;21.30;99.90
67890;DHT22;54685;52.082;5.426;2022-08-03T00:11:11;21.30;99.90
67890;DHT22;54685;52.082;5.426;2022-08-03T00:13:38;21.30;99.90
67890;DHT22;54685;52.082;5.426;2022-08-03T00:16:05;21.20;99.90
67890;DHT22;54685;52.082;5.426;2022-08-03T00:18:32;21.20;99.90
67890;DHT22;54685;52.082;5.426;2022-08-03T00:20:58;21.20;99.90
67890;DHT22;54685;52.082;5.426;2022-08-03T00:23:25;21.20;99.90
67890;DHT22;54685;52.082;5.426;2022-08-03T00:26:12;21.10;99.90
67890;DHT22;54685;52.082;5.426;2022-08-03T00:28:38;21.10;99.90
67890;DHT22;54685;52.082;5.426;2022-08-03T00:31:06;21.10;99.90
67890;DHT22;54685;52.082;5.426;2022-08-03T00:33:39;21.10;99.90
67890;DHT22;54685;52.082;5.426;2022-08-03T00:36:26;21.00;99.90
67890;DHT22;54685;52.082;5.426;2022-08-03T00:38:53;20.90;99.90
67890;DHT22;54685;52.082;5.426;2022-08-03T00:41:20;21.00;99.90
67890;DHT22;54685;52.082;5.426;2022-08-03T00:43:46;20.90;99.90
67890;DHT22;54685;52.082;5.426;2022-08-03T00:46:13;20.90;99.90
67890;DHT22;54685;52.082;5.426;2022-08-03T00:48:50;20.90;99.90
67890;DHT22;54685;52.082;5.426;2022-08-03T00:51:18;20.90;99.90
67890;DHT22;54685;52.082;5.426;2022-08-03T00:53:46;20.80;99.90
67890;DHT22;54685;52.082;5.426;2022-08-03T00:56:14;20.80;99.90
67890;DHT22;54685;52.082;5.426;2022-08-03T00:58:43;20.90;99.90
67890;DHT22;54685;52.082;5.426;2022-08-03T01:01:10;20.80;99.90
67890;DHT22;54685;52.082;5.426;2022-08-03T01:03:38;20.80;99.90
67890;DHT22;54685;52.082;5.426;2022-08-03T01:06:11;20.70;99.90
67890;DHT22;54685;52.082;5.426;2022-08-03T01:09:04;20.70;99.90
67890;DHT22;54685;52.082;5.426;2022-08-03T01:11:49;20.70;99.90
67890;DHT22;54685;52.082;5.426;2022-08-03T01:14:33;20.60;99.90
67890;DHT22;54685;52.082;5.426;2022-08-03T01:20:06;20.50;99.90
67890;DHT22;54685;52.082;5.426;2022-08-03T01:28:28;20.60;99.90
67890;DHT22;54685;52.082;5.426;2022-08-03T01:31:04;20.50;99.90
67890;DHT22;54685;52.082;5.426;2022-08-03T01:33:39;20.50;99.90
67890;DHT22;54685;52.082;5.426;2022-08-03T01:36:13;20.50;99.90
67890;DHT22;54685;52.082;5.426;2022-08-03T01:38:45;20.50;99.90
67890;DHT22;54685;52.082;5.426;2022-08-03T01:41:17;20.40;99.90
67890;DHT22;54685;52.082;5.426;2022-08-03T01:43:47;20.40;99.90
67890;DHT22;54685;52.082;5.426;2022-08-03T01:46:38;20.40;99.90
67890;DHT22;54685;52.082;5.426;2022-08-03T01:49:13;20.30;99.90
67890;DHT22;54685;52.082;5.426;2022-08-03T01:51:41;20.30;99.90
67890;DHT22;54685;52.082;5.426;2022-08-03T01:54:30;20.20;99.90
67890;DHT22;54685;52.082;5.426;2022-08-03T01:56:58;20.20;99.90
67890;DHT22;54685;52.082;5.426;2022-08-03T01:59:26;20.10;99.90
67890;DHT22;54685;52.082;5.426;2022-08-03T02:01:56;20.20;99.90
67890;DHT22;54685;52.082;5.426;2022-08-03T02:04:44;20.20;99.90
67890;DHT22;54685;52.082;5.426;2022-08-03T02:07:13;20.20;99.90
67890;DHT22;54685;52.082;5.426;2022-08-03T02:09:43;20.20;99.90
67890;DHT22;54685;52.082;5.426;2022-08-03T02:12:11;20.10;99.90
67890;DHT22;54685;52.082;5.426;2022-08-03T02:14:41;20.10;99.90
67890;DHT22;54685;52.082;5.426;2022-08-03T02:17:09;20.20;99.90
67890;DHT22;54685;52.082;5.426;2022-08-03T02:19:36;20.10;99.90
67890;DHT22;54685;52.082;5.426;2022-08-03T02:22:07;20.10;99.90
67890;DHT22;54685;52.082;5.426;2022-08-03T02:24:34;20.20;99.90
67890;DHT22;54685;52.082;5.426;2022-08-03T02:27:05;20.10;99.90
67890;DHT22;54685;52.082;5.426;2022-08-03T02:29:35;20.10;99.90
67890;DHT22;54685;52.082;5.426;2022-08-03T02:32:10;20.10;99.90
67890;DHT22;54685;52.082;5.426;2022-08-03T02:34:41;20.00;99.90
67890;DHT22;54685;52.082;5.426;2022-08-03T02:37:11;20.00;99.90
67890;DHT22;54685;52.082;5.426;2022-08-03T02:39:40;20.00;99.90
67890;DHT22;54685;52.082;5.426;2022-08-03T02:42:09;20.00;99.90
67890;DHT22;54685;52.082;5.426;2022-08-03T02:44:39;20.00;99.90
67890;DHT22;54685;52.082;5.426;2022-08-03T02:47:09;20.00;99.90
67890;DHT22;54685;52.082;5.426;2022-08-03T02:49:37;20.10;99.90
67890;DHT22;54685;52.082;5.426;2022-08-03T02:52:19;20.00;99.90
67890;DHT22;54685;52.082;5.426;2022-08-03T02:54:48;20.00;99.90
67890;DHT22;54685;52.082;5.426;2022-08-03T02:57:18;20.00;99.90
67890;DHT22;54685;52.082;5.426;2022-08-03T02:59:46;19.90;99.90
67890;DHT22;54685;52.082;5.426;2022-08-03T03:02:14;19.90;99.90
67890;DHT22;54685;52.082;5.426;2022-08-03T03:04:43;19.90;99.90
67890;DHT22;54685;52.082;5.426;2022-08-03T03:07:31;19.80;99.90
67890;DHT22;54685;52.082;5.426;2022-08-03T03:10:20;19.80;99.90
67890;DHT22;54685;52.082;5.426;2022-08-03T03:12:49;19.90;99.90
67890;DHT22;54685;52.082;5.426;2022-08-03T03:15:17;19.90;99.90
67890;DHT22;54685;52.082;5.426;2022-08-03T03:17:44;19.80;99.90
67890;DHT22;54685;52.082;5.426;2022-08-03T03:20:14;19.80;99.90
67890;DHT22;54685;52.082;5.426;2022-08-03T03:22:57;19.80;99.90
67890;DHT22;54685;52.082;5.426;2022-08-03T03:25:24;19.70;99.90
67890;DHT22;54685;52.082;5.426;2022-08-03T03:27:51;19.70;99.90
67890;DHT22;54685;52.082;5.426;2022-08-03T03:30:18;19.70;99.90
67890;DHT22;54685;52.082;5.426;2022-08-03T03:32:45;19.70;99.90
67890;DHT22;54685;52.082;5.426;2022-08-03T03:35:13;19.70;99.90
67890;DHT22;54685;52.082;5.426;2022-08-03T03:37:40;19.70;99.90
67890;DHT22;54685;52.082;5.426;2022-08-03T03:40:07;19.70;99.90
67890;DHT22;54685;52.082;5.426;2022-08-03T03:42:35;19.70;99.90
67890;DHT22;54685;52.082;5.426;2022-08-03T03:45:07;19.60;99.90
67890;DHT22;54685;52.082;5.426;2022-08-03T03:47:34;19.70;99.90
67890;DHT22;54685;52.082;5.426;2022-08-03T03:50:03;19.70;99.90
67890;DHT22;54685;52.082;5.426;2022-08-03T03:52:31;19.70;99.90
67890;DHT22;54685;52.082;5.426;2022-08-03T03:54:58;19.60;99.90
67890;DHT22;54685;52.082;5.426;2022-08-03T03:57:27;19.70;99.90
67890;DHT22;54685;52.082;5.426;2022-08-03T03:59:55;19.70;99.90
67890;DHT22;54685;52.082;5.426;2022-08-03T04:02:22;19.70;99.90
67890;DHT22;54685;52.082;5.426;2022-08-03T04:04:49;19.70;99.90
67890;DHT22;54685;52.082;5.426;2022-08-03T04:10:53;19.60;99.90
67890;DHT22;54685;52.082;5.426;2022-08-03T04:13:29;19.60;99.90
67890;DHT22;54685;52.082;5.426;2022-08-03T04:15:58;19.50;99.90
67890;DHT22;54685;52.082;5.426;2022-08-03T04:18:27;19.60;99.90
67890;DHT22;54685;52.082;5.426;2022-08-03T04:20:59;19.50;99.90
67890;DHT22;54685;52.082;5.426;2022-08-03T04:23:28;19.50;99.90
67890;DHT22;54685;52.082;5.426;2022-08-03T04:25:56;19.50;99.90
67890;DHT22;54685;52.082;5.426;2022-08-03T04:28:25;19.50;99.90
67890;DHT22;54685;52.082;5.426;2022-08-03T04:30:58;19.50;99.90
67890;DHT22;54685;52.082;5.426;2022-08-03T04:33:26;19.50;99.90
67890;DHT22;54685;52.082;5.426;2022-08-03T04:35:58;19.50;99.90
67890;DHT22;54685;52.082;5.426;2022-08-03T04:38:30;19.60;99.90
67890;DHT22;54685;52.082;5.426;2022-08-03T04:40:58;19.60;99.90
67890;DHT22;54685;52.082;5.426;2022-08-03T04:43:26;19.60;99.90
67890;DHT22;54685;52.082;5.426;2022-08-03T04:45:54;19.60;99.90
67890;DHT22;54685;52.082;5.426;2022-08-03T04:48:22;19.60;99.90
67890;DHT22;54685;52.082;5.426;2022-08-03T04:50:50;19.60;99.90
67890;DHT22;54685;52.082;5.426;2022-08-03T04:53:17;19.60;99.90
67890;DHT22;54685;52.082;5.426;2022-08-03T04:55:45;19.50;99.90
67890;DHT22;54685;52.082;5.426;2022-08-03T04:58:12;19.60;99.90
67890;DHT22;54685;52.082;5.426;2022-08-03T05:00:38;19.60;99.90
67890;DHT22;54685;52.082;5.426;2022-08-03T05:03:05;19.50;99.90
67890;DHT22;54685;52.082;5.426;2022-08-03T05:05:51;19.60;99.90
67890;DHT22;54685;52.082;5.426;2022-08-03T05:08:18;19.60;99.90
67890;DHT22;54685;52.082;5.426;2022-08-03T05:10:53;19.70;99.90
67890;DHT22;54685;52.082;5.426;2022-08-03T05:13:19;19.70;99.90
67890;DHT22;54685;52.082;5.426;2022-08-03T05:15:46;19.60;99.90
67890;DHT22;54685;52.082;5.426;2022-08-03T05:18:13;19.70;99.90
67890;DHT22;54685;52.082;5.426;2022-08-03T05:20:40;19.70;99.90
67890;DHT22;54685;52.082;5.426;2022-08-03T05:23:07;19.80;99.90
67890;DHT22;54685;52.082;5.426;2022-08-03T05:25:34;19.80;99.90
67890;DHT22;54685;52.082;5.426;2022-08-03T05:28:00;19.80;99.90
67890;DHT22;54685;52.082;5.426;2022-08-03T05:30:27;19.80;99.90
67890;DHT22;54685;52.082;5.426;2022-08-03T05:33:01;19.70;99.90
67890;DHT22;54685;52.082;5.426;2022-08-03T05:35:29;19.80;99.90
67890;DHT22;54685;52.082;5.426;2022-08-03T05:38:16;19.80;99.90
67890;DHT22;54685;52.082;5.426;2022-08-03T05:40:54;19.80;99.90
67890;DHT22;54685;52.082;5.426;2022-08-03T05:43:23;19.90;99.90
67890;DHT22;54685;52.082;5.426;2022-08-03T05:45:50;19.90;99.90
67890;DHT22;54685;52.082;5.426;2022-08-03T05:48:36;19.90;99.90
67890;DHT22;54685;52.082;5.426;2022-08-03T05:51:03;19.90;99.90
67890;DHT22;54685;52.082;5.426;2022-08-03T05:53:33;19.90;99.90
67890;DHT22;54685;52.082;5.426;2022-08-03T05:56:00;20.00;99.90
67890;DHT22;54685;52.082;5.426;2022-08-03T05:58:44;20.00;99.90
67890;DHT22;54685;52.082;5.426;2022-08-03T06:01:11;20.00;99.90
67890;DHT22;54685;52.082;5.426;2022-08-03T06:03:38;20.00;99.90
67890;DHT22;54685;52.082;5.426;2022-08-03T06:06:05;20.00;99.90
67890;DHT22;54685;52.082;5.426;2022-08-03T06:08:32;20.10;99.90
67890;DHT22;54685;52.082;5.426;2022-08-03T06:10:59;20.10;99.90
67890;DHT22;54685;52.082;5.426;2022-08-03T06:13:26;20.20;99.90
67890;DHT22;54685;52.082;5.426;2022-08-03T06:15:53;20.20;99.90
67890;DHT22;54685;52.082;5.426;2022-08-03T06:18:19;20.30;99.90
67890;DHT22;54685;52.082;5.426;2022-08-03T06:20:46;20.40;99.90
67890;DHT22;54685;52.082;5.426;2022-08-03T06:23:15;20.30;99.90
67890;DHT22;54685;52.082;5.426;2022-08-03T06:25:44;20.40;99.90
67890;DHT22;54685;52.082;5.426;2022-08-03T06:28:12;20.40;99.90
67890;DHT22;54685;52.082;5.426;2022-08-03T06:31:03;20.30;99.90
67890;DHT22;54685;52.082;5.426;2022-08-03T06:33:32;20.50;99.90
67890;DHT22;54685;52.082;5.426;2022-08-03T06:36:19;20.50;99.90
67890;DHT22;54685;52.082;5.426;2022-08-03T06:38:45;20.60;99.90
67890;DHT22;54685;52.082;5.426;2022-08-03T06:41:12;20.60;99.90
67890;DHT22;54685;52.082;5.426;2022-08-03T06:43:39;20.60;99.90
67890;DHT22;54685;52.082;5.426;2022-08-03T06:46:26;20.80;99.90
67890;DHT22;54685;52.082;5.426;2022-08-03T06:48:53;20.90;99.90
67890;DHT22;54685;52.082;5.426;2022-08-03T06:51:21;21.00;99.90
67890;DHT22;54685;52.082;5.426;2022-08-03T06:54:09;21.00;99.90
67890;DHT22;54685;52.082;5.426;2022-08-03T06:56:36;21.00;99.90
67890;DHT22;54685;52.082;5.426;2022-08-03T06:59:03;21.00;99.90
67890;DHT22;54685;52.082;5.426;2022-08-03T07:01:30;21.10;99.90
67890;DHT22;54685;52.082;5.426;2022-08-03T07:03:57;21.10;99.90
67890;DHT22;54685;52.082;5.426;2022-08-03T07:06:24;21.20;99.90
67890;DHT22;54685;52.082;5.426;2022-08-03T07:08:52;21.30;99.90
67890;DHT22;54685;52.082;5.426;2022-08-03T07:11:25;21.30;99.90
67890;DHT22;54685;52.082;5.426;2022-08-03T07:13:51;21.30;99.90
67890;DHT22;54685;52.082;5.426;2022-08-03T07:16:18;21.30;99.90
67890;DHT22;54685;52.082;5.426;2022-08-03T07:18:46;21.40;99.90
67890;DHT22;54685;52.082;5.426;2022-08-03T07:21:13;21.50;99.90
67890;DHT22;54685;52.082;5.426;2022-08-03T07:23:42;21.40;99.90
67890;DHT22;54685;52.082;5.426;2022-08-03T07:26:09;21.50;99.90
67890;DHT22;54685;52.082;5.426;2022-08-03T07:28:36;21.60;99.90
67890;DHT22;54685;52.082;5.426;2022-08-03T07:31:03;21.50;99.90
67890;DHT22;54685;52.082;5.426;2022-08-03T07:33:29;21.50;99.90
67890;DHT22;54685;52.082;5.426;2022-08-03T07:35:56;21.60;99.90
67890;DHT22;54685;52.082;5.426;2022-08-03T07:38:23;21.70;99.90
67890;DHT22;54685;52.082;5.426;2022-08-03T07:40:49;21.70;99.90
67890;DHT22;54685;52.082;5.426;2022-08-03T07:43:16;21.70;99.90
67890;DHT22;54685;52.082;5.426;2022-08-03T07:45:43;21.80;99.90
67890;DHT22;54685;52.082;5.426;2022-08-03T07:48:10;21.90;99.90
67890;DHT22;54685;52.082;5.426;2022-08-03T07:50:38;22.00;99.90
67890;DHT22;54685;52.082;5.426;2022-08-03T07:53:05;22.00;99.90
67890;DHT22;54685;52.082;5.426;2022-08-03T07:55:32;22.00;99.90
67890;DHT22;54685;52.082;5.426;2022-08-03T07:58:04;22.10;99.90
67890;DHT22;54685;52.082;5.426;2022-08-03T08:00:32;22.10;99.90
67890;DHT22;54685;52.082;5.426;2022-08-03T08:02:59;22.20;99.90
67890;DHT22;54685;52.082;5.426;2022-08-03T08:05:26;22.30;99.90
67890;DHT22;54685;52.082;5.426;2022-08-03T08:07:53;22.30;99.90
67890;DHT22;54685;52.082;5.426;2022-08-03T08:10:20;22.30;99.90
67890;DHT22;54685;52.082;5.426;2022-08-03T08:12:48;22.40;99.90
67890;DHT22;54685;52.082;5.426;2022-08-03T08:15:15;22.40;99.90
67890;DHT22;54685;52.082;5.426;2022-08-03T08:17:44;22.40;99.90
67890;DHT22;54685;52.082;5.426;2022-08-03T08:20:15;22.50;99.90
67890;DHT22;54685;52.082;5.426;2022-08-03T08:22:54;22.50;99.90
67890;DHT22;54685;52.082;5.426;2022-08-03T08:25:24;22.60;99.90
67890;DHT22;54685;52.082;5.426;2022-08-03T08:27:51;22.70;99.90
67890;DHT22;54685;52.082;5.426;2022-08-03T08:30:38;22.70;99.90
67890;DHT22;54685;52.082;5.426;2022-08-03T08:33:05;22.90;99.90
67890;DHT22;54685;52.082;5.426;2022-08-03T08:35:32;23.00;99.90
67890;DHT22;54685;52.082;5.426;2022-08-03T08:37:59;23.10;99.90
67890;DHT22;54685;52.082;5.426;2022-08-03T08:40:31;23.20;99.90
67890;DHT22;54685;52.082;5.426;2022-08-03T08:42:58;23.30;99.90
67890;DHT22;54685;52.082;5.426;2022-08-03T08:45:25;23.40;99.90
67890;DHT22;54685;52.082;5.426;2022-08-03T08:47:54;23.60;99.90
67890;DHT22;54685;52.082;5.426;2022-08-03T08:50:27;23.70;99.90
67890;DHT22;54685;52.082;5.426;2022-08-03T08:52:55;23.80;99.90
67890;DHT22;54685;52.082;5.426;2022-08-03T08:55:25;24.00;99.90
67890;DHT22;54685;52.082;5.426;2022-08-03T08:57:58;24.10;99.90
67890;DHT22;54685;52.082;5.426;2022-08-03T09:00:27;24.30;99.90
67890;DHT22;54685;52.082;5.426;2022-08-03T09:02:56;24.50;99.90
67890;DHT22;54685;52.082;5.426;2022-08-03T09:05:23;24.70;99.90
67890;DHT22;54685;52.082;5.426;2022-08-03T09:08:11;24.80;99.90
67890;DHT22;54685;52.082;5.426;2022-08-03T09:10:37;25.00;99.90
67890;DHT22;54685;52.082;5.426;2022-08-03T09:13:07;25.10;99.90
67890;DHT22;54685;52.082;5.426;2022-08-03T09:15:34;25.40;99.90
67890;DHT22;54685;52.082;5.426;2022-08-03T09:18:02;25.50;99.90
67890;DHT22;54685;52.082;5.426;2022-08-03T09:20:32;25.80;99.90
67890;DHT22;54685;52.082;5.426;2022-08-03T09:23:07;26.00;99.70
67890;DHT22;54685;52.082;5.426;2022-08-03T09:25:57;26.10;99.90
67890;DHT22;54685;52.082;5.426;2022-08-03T09:28:33;26.30;99.40
67890;DHT22;54685;52.082;5.426;2022-08-03T09:31:29;26.40;97.70
67890;DHT22;54685;52.082;5.426;2022-08-03T09:33:57;26.60;95.90
67890;DHT22;54685;52.082;5.426;2022-08-03T09:39:18;27.10;92.00
67890;DHT22;54685;52.082;5.426;2022-08-03T09:42:10;27.20;91.70
67890;DHT22;54685;52.082;5.426;2022-08-03T09:44:49;27.50;92.20
67890;DHT22;54685;52.082;5.426;2022-08-03T09:47:30;27.70;90.40
67890;DHT22;54685;52.082;5.426;2022-08-03T09:50:05;28.10;84.50
67890;DHT22;54685;52.082;5.426;2022-08-03T09:52:34;28.20;84.50
67890;DHT22;54685;52.082;5.426;2022-08-03T09:55:15;28.40;83.60
67890;DHT22;54685;52.082;5.426;2022-08-03T09:58:07;28.70;79.60
67890;DHT22;54685;52.082;5.426;2022-08-03T10:03:27;29.30;75.50
67890;DHT22;54685;52.082;5.426;2022-08-03T10:05:55;29.50;74.20
67890;DHT22;54685;52.082;5.426;2022-08-03T10:08:25;29.70;73.00
67890;DHT22;54685;52.082;5.426;2022-08-03T10:10:53;29.90;62.30
67890;DHT22;54685;52.082;5.426;2022-08-03T10:13:21;29.70;64.50
67890;DHT22;54685;52.082;5.426;2022-08-03T10:15:49;29.90;65.60
67890;DHT22;54685;52.082;5.426;2022-08-03T10:18:36;30.00;64.70
67890;DHT22;54685;52.082;5.426;2022-08-03T10:21:07;30.40;60.90
67890;DHT22;54685;52.082;5.426;2022-08-03T10:23:37;30.30;60.20
67890;DHT22;54685;52.082;5.426;2022-08-03T10:26:44;30.70;62.30
67890;DHT22;54685;52.082;5.426;2022-08-03T10:29:20;30.90;56.20
67890;DHT22;54685;52.082;5.426;2022-08-03T10:31:49;31.20;54.60
67890;DHT22;54685;52.082;5.426;2022-08-03T10:34:26;31.50;52.40
67890;DHT22;54685;52.082;5.426;2022-08-03T10:36:57;31.50;53.80
67890;DHT22;54685;52.082;5.426;2022-08-03T10:39:28;31.70;53.20
67890;DHT22;54685;52.082;5.426;2022-08-03T10:41:55;31.60;54.40
67890;DHT22;54685;52.082;5.426;2022-08-03T10:44:31;31.70;53.50
67890;DHT22;54685;52.082;5.426;2022-08-03T10:46:58;31.90;53.70
67890;DHT22;54685;52.082;5.426;2022-08-03T10:49:26;32.20;52.70
67890;DHT22;54685;52.082;5.426;2022-08-03T10:52:02;32.00;52.10
67890;DHT22;54685;52.082;5.426;2022-08-03T10:54:50;32.10;52.60
67890;DHT22;54685;52.082;5.426;2022-08-03T10:57:50;32.30;52.10
67890;DHT22;54685;52.082;5.426;2022-08-03T11:00:26;32.30;50.00
67890;DHT22;54685;52.082;5.426;2022-08-03T11:05:29;32.30;48.10
67890;DHT22;54685;52.082;5.426;2022-08-03T11:10:48;32.10;46.10
67890;DHT22;54685;52.082;5.426;2022-08-03T11:13:18;31.90;48.00
67890;DHT22;54685;52.082;5.426;2022-08-03T11:15:47;31.90;45.40
67890;DHT22;54685;52.082;5.426;2022-08-03T11:18:14;32.10;45.40
67890;DHT22;54685;52.082;5.426;2022-08-03T11:20:56;32.20;44.20
67890;DHT22;54685;52.082;5.426;2022-08-03T11:23:43;32.30;44.10
67890;DHT22;54685;52.082;5.426;2022-08-03T11:26:30;32.40;43.70
67890;DHT22;54685;52.082;5.426;2022-08-03T11:29:26;32.60;44.10
67890;DHT22;54685;52.082;5.426;2022-08-03T11:31:53;32.70;43.50
67890;DHT22;54685;52.082;5.426;2022-08-03T11:34:20;32.70;45.60
67890;DHT22;54685;52.082;5.426;2022-08-03T11:37:19;33.00;44.00
67890;DHT22;54685;52.082;5.426;2022-08-03T11:39:50;33.20;44.70
67890;DHT22;54685;52.082;5.426;2022-08-03T11:44:54;33.10;43.40
67890;DHT22;54685;52.082;5.426;2022-08-03T11:47:22;33.30;43.70
67890;DHT22;54685;52.082;5.426;2022-08-03T11:49:51;33.30;42.10
67890;DHT22;54685;52.082;5.426;2022-08-03T11:52:19;33.50;42.00
67890;DHT22;54685;52.082;5.426;2022-08-03T11:54:54;33.50;40.70
67890;DHT22;54685;52.082;5.426;2022-08-03T11:57:29;33.20;40.00
67890;DHT22;54685;52.082;5.426;2022-08-03T12:00:30;33.20;41.50
67890;DHT22;54685;52.082;5.426;2022-08-03T12:03:00;33.40;38.90
67890;DHT22;54685;52.082;5.426;2022-08-03T12:08:29;33.70;42.10
67890;DHT22;54685;52.082;5.426;2022-08-03T12:10:58;33.70;38.50
67890;DHT22;54685;52.082;5.426;2022-08-03T12:13:26;33.60;39.00
67890;DHT22;54685;52.082;5.426;2022-08-03T12:16:22;33.60;39.60
67890;DHT22;54685;52.082;5.426;2022-08-03T12:19:01;33.80;38.50
67890;DHT22;54685;52.082;5.426;2022-08-03T12:21:29;33.60;38.30
67890;DHT22;54685;52.082;5.426;2022-08-03T12:24:01;33.50;38.50
67890;DHT22;54685;52.082;5.426;2022-08-03T12:26:30;33.30;39.20
67890;DHT22;54685;52.082;5.426;2022-08-03T12:29:07;33.30;38.90
67890;DHT22;54685;52.082;5.426;2022-08-03T12:31:34;33.30;39.20
67890;DHT22;54685;52.082;5.426;2022-08-03T12:34:03;33.10;39.10
67890;DHT22;54685;52.082;5.426;2022-08-03T12:36:34;32.90;40.10
67890;DHT22;54685;52.082;5.426;2022-08-03T12:39:07;33.10;41.40
67890;DHT22;54685;52.082;5.426;2022-08-03T12:41:36;33.20;40.30
67890;DHT22;54685;52.082;5.426;2022-08-03T12:44:05;33.00;39.40
67890;DHT22;54685;52.082;5.426;2022-08-03T12:46:41;32.90;40.30
67890;DHT22;54685;52.082;5.426;2022-08-03T12:49:14;32.80;39.90
67890;DHT22;54685;52.082;5.426;2022-08-03T12:54:20;32.60;40.70
67890;DHT22;54685;52.082;5.426;2022-08-03T12:57:06;32.50;41.90
67890;DHT22;54685;52.082;5.426;2022-08-03T12:59:36;32.50;41.30
67890;DHT22;54685;52.082;5.426;2022-08-03T13:04:50;32.30;43.10
67890;DHT22;54685;52.082;5.426;2022-08-03T13:07:18;32.30;43.40
67890;DHT22;54685;52.082;5.426;2022-08-03T13:09:53;32.40;43.00
67890;DHT22;54685;52.082;5.426;2022-08-03T13:12:27;32.50;42.60
67890;DHT22;54685;52.082;5.426;2022-08-03T13:14:56;32.30;42.30
67890;DHT22;54685;52.082;5.426;2022-08-03T13:17:30;32.30;44.00
67890;DHT22;54685;52.082;5.426;2022-08-03T13:20:16;32.10;43.90
67890;DHT22;54685;52.082;5.426;2022-08-03T13:23:10;32.20;44.70
67890;DHT22;54685;52.082;5.426;2022-08-03T13:25:48;32.30;43.60
67890;DHT22;54685;52.082;5.426;2022-08-03T13:28:21;32.20;43.60
67890;DHT22;54685;52.082;5.426;2022-08-03T13:30:48;31.80;44.00
67890;DHT22;54685;52.082;5.426;2022-08-03T13:33:15;31.60;44.80
67890;DHT22;54685;52.082;5.426;2022-08-03T13:35:42;31.60;45.90
67890;DHT22;54685;52.082;5.426;2022-08-03T13:38:09;31.60;46.50
67890;DHT22;54685;52.082;5.426;2022-08-03T13:40:35;31.70;46.00
67890;DHT22;54685;52.082;5.426;2022-08-03T13:43:07;31.70;46.80
67890;DHT22;54685;52.082;5.426;2022-08-03T13:45:34;31.70;46.80
67890;DHT22;54685;52.082;5.426;2022-08-03T13:48:01;31.70;47.50
67890;DHT22;54685;52.082;5.426;2022-08-03T13:50:28;31.70;46.10
67890;DHT22;54685;52.082;5.426;2022-08-03T13:52:57;31.70;47.20
67890;DHT22;54685;52.082;5.426;2022-08-03T13:55:24;31.90;47.90
67890;DHT22;54685;52.082;5.426;2022-08-03T13:57:51;31.80;46.60
67890;DHT22;54685;52.082;5.426;2022-08-03T14:00:32;31.80;47.20
67890;DHT22;54685;52.082;5.426;2022-08-03T14:03:00;31.50;46.30
67890;DHT22;54685;52.082;5.426;2022-08-03T14:05:35;31.40;47.40
67890;DHT22;54685;52.082;5.426;2022-08-03T14:08:05;31.30;47.30
67890;DHT22;54685;52.082;5.426;2022-08-03T14:10:34;31.30;47.80
67890;DHT22;54685;52.082;5.426;2022-08-03T14:13:02;31.30;48.30
67890;DHT22;54685;52.082;5.426;2022-08-03T14:15:29;31.40;48.10
67890;DHT22;54685;52.082;5.426;2022-08-03T14:17:56;31.40;48.50
67890;DHT22;54685;52.082;5.426;2022-08-03T14:20:25;31.50;47.20
67890;DHT22;54685;52.082;5.426;2022-08-03T14:23:12;31.50;48.10
67890;DHT22;54685;52.082;5.426;2022-08-03T14:25:40;31.60;48.30
67890;DHT22;54685;52.082;5.426;2022-08-03T14:28:17;31.50;46.90
67890;DHT22;54685;52.082;5.426;2022-08-03T14:30:44;31.60;46.80
67890;DHT22;54685;52.082;5.426;2022-08-03T14:33:10;31.50;45.50
67890;DHT22;54685;52.082;5.426;2022-08-03T14:35:37;31.30;46.50
67890;DHT22;54685;52.082;5.426;2022-08-03T14:38:04;31.20;47.90
67890;DHT22;54685;52.082;5.426;2022-08-03T14:40:31;31.20;48.40
67890;DHT22;54685;52.082;5.426;2022-08-03T14:42:58;31.20;48.20
67890;DHT22;54685;52.082;5.426;2022-08-03T14:45:24;31.10;47.60
67890;DHT22;54685;52.082;5.426;2022-08-03T14:47:51;31.30;48.00
67890;DHT22;54685;52.082;5.426;2022-08-03T14:50:38;31.20;47.80
67890;DHT22;54685;52.082;5.426;2022-08-03T14:53:14;31.20;49.10
67890;DHT22;54685;52.082;5.426;2022-08-03T14:55:46;31.40;48.60
67890;DHT22;54685;52.082;5.426;2022-08-03T14:58:18;31.40;48.90
67890;DHT22;54685;52.082;5.426;2022-08-03T15:00:48;31.40;48.70
67890;DHT22;54685;52.082;5.426;2022-08-03T15:03:16;31.50;48.10
67890;DHT22;54685;52.082;5.426;2022-08-03T15:05:46;31.40;48.20
67890;DHT22;54685;52.082;5.426;2022-08-03T15:08:12;31.30;48.00
67890;DHT22;54685;52.082;5.426;2022-08-03T15:10:40;31.30;49.20
67890;DHT22;54685;52.082;5.426;2022-08-03T15:13:10;31.30;49.30
67890;DHT22;54685;52.082;5.426;2022-08-03T15:15:37;31.30;48.60
67890;DHT22;54685;52.082;5.426;2022-08-03T15:18:04;31.30;49.40
67890;DHT22;54685;52.082;5.426;2022-08-03T15:20:34;31.20;48.50
67890;DHT22;54685;52.082;5.426;2022-08-03T15:23:13;31.20;47.20
67890;DHT22;54685;52.082;5.426;2022-08-03T15:25:47;31.20;47.60
67890;DHT22;54685;52.082;5.426;2022-08-03T15:28:34;31.10;48.10
67890;DHT22;54685;52.082;5.426;2022-08-03T15:31:03;31.10;48.90
67890;DHT22;54685;52.082;5.426;2022-08-03T15:33:31;31.00;47.30
67890;DHT22;54685;52.082;5.426;2022-08-03T15:36:00;31.00;47.50
67890;DHT22;54685;52.082;5.426;2022-08-03T15:38:27;31.00;48.00
67890;DHT22;54685;52.082;5.426;2022-08-03T15:40:54;31.00;48.00
67890;DHT22;54685;52.082;5.426;2022-08-03T15:43:22;31.10;48.00
67890;DHT22;54685;52.082;5.426;2022-08-03T15:45:49;31.00;47.10
67890;DHT22;54685;52.082;5.426;2022-08-03T15:48:36;31.00;47.40
67890;DHT22;54685;52.082;5.426;2022-08-03T15:51:03;31.00;48.10
67890;DHT22;54685;52.082;5.426;2022-08-03T15:53:30;31.00;47.80
67890;DHT22;54685;52.082;5.426;2022-08-03T15:55:58;31.00;47.60
67890;DHT22;54685;52.082;5.426;2022-08-03T15:58:25;31.00;47.90
67890;DHT22;54685;52.082;5.426;2022-08-03T16:01:15;31.00;48.10
67890;DHT22;54685;52.082;5.426;2022-08-03T16:03:45;31.00;47.10
67890;DHT22;54685;52.082;5.426;2022-08-03T16:06:12;30.90;47.90
67890;DHT22;54685;52.082;5.426;2022-08-03T16:08:39;30.70;48.50
67890;DHT22;54685;52.082;5.426;2022-08-03T16:11:06;30.70;49.20
67890;DHT22;54685;52.082;5.426;2022-08-03T16:13:32;30.70;49.80
67890;DHT22;54685;52.082;5.426;2022-08-03T16:16:19;30.70;49.70
67890;DHT22;54685;52.082;5.426;2022-08-03T16:18:46;30.70;50.40
67890;DHT22;54685;52.082;5.426;2022-08-03T16:21:13;30.70;50.80
67890;DHT22;54685;52.082;5.426;2022-08-03T16:23:45;30.70;50.60
67890;DHT22;54685;52.082;5.426;2022-08-03T16:26:13;30.80;49.80
67890;DHT22;54685;52.082;5.426;2022-08-03T16:28:39;30.80;49.90
67890;DHT22;54685;52.082;5.426;2022-08-03T16:31:06;30.80;49.60